createdAt,value
2017-09-27T00:01:57.739Z,25.90
2017-09-27T00:04:23.927Z,28.27
2017-09-27T00:06:50.155Z,28.53
2017-09-27T00:09:16.414Z,23.20
2017-09-27T00:11:42.633Z,23.17
2017-09-27T00:14:09.200Z,24.90
2017-09-27T00:16:35.575Z,26.33
2017-09-27T00:19:01.781Z,22.80
2017-09-27T00:21:28.030Z,28.83
2017-09-27T00:23:54.235Z,23.60
2017-09-27T00:26:20.451Z,25.40
2017-09-27T00:28:46.838Z,25.73
2017-09-27T00:31:13.032Z,23.00
2017-09-27T00:33:39.992Z,26.50
2017-09-27T00:36:06.203Z,24.17
2017-09-27T00:38:32.414Z,25.20
2017-09-27T00:40:58.663Z,24.77
2017-09-27T00:43:25.626Z,22.53
2017-09-27T00:45:51.817Z,27.87
2017-09-27T00:48:18.040Z,22.63
2017-09-27T00:50:44.226Z,25.20
2017-09-27T00:53:10.426Z,29.23
2017-09-27T00:55:37.323Z,27.07
2017-09-27T00:58:03.530Z,26.93
2017-09-27T01:00:29.718Z,28.63
2017-09-27T01:02:56.710Z,26.63
2017-09-27T01:05:22.925Z,25.07
2017-09-27T01:07:49.120Z,28.43
2017-09-27T01:10:15.317Z,27.57
2017-09-27T01:12:41.571Z,27.43
2017-09-27T01:15:08.507Z,28.23
2017-09-27T01:17:34.725Z,29.43
2017-09-27T01:20:00.954Z,23.87
2017-09-27T01:22:27.178Z,25.67
2017-09-27T01:24:53.478Z,24.87
2017-09-27T01:27:19.693Z,24.83
2017-09-27T01:29:45.948Z,30.23
2017-09-27T01:32:12.135Z,29.20
2017-09-27T01:34:39.167Z,27.73
2017-09-27T01:37:05.397Z,25.90
2017-09-27T01:39:32.359Z,28.70
2017-09-27T01:41:59.297Z,28.63
2017-09-27T01:44:26.224Z,32.60
2017-09-27T01:46:52.479Z,28.53
2017-09-27T01:49:19.421Z,29.90
2017-09-27T01:51:46.398Z,25.40
2017-09-27T01:54:12.592Z,30.67
2017-09-27T01:56:39.570Z,29.00
2017-09-27T01:59:05.746Z,25.93
2017-09-27T02:01:31.948Z,32.53
2017-09-27T02:03:58.176Z,30.23
2017-09-27T02:06:24.352Z,30.67
2017-09-27T02:08:51.267Z,26.53
2017-09-27T02:11:17.466Z,26.40
2017-09-27T02:13:43.664Z,25.23
2017-09-27T02:16:09.868Z,28.60
2017-09-27T02:18:36.838Z,26.37
2017-09-27T02:21:03.037Z,25.77
2017-09-27T02:23:29.284Z,28.13
2017-09-27T02:25:56.211Z,30.20
2017-09-27T02:28:22.387Z,25.13
2017-09-27T02:30:48.603Z,27.73
2017-09-27T02:33:14.837Z,32.30
2017-09-27T02:35:41.057Z,30.43
2017-09-27T02:38:07.285Z,26.83
2017-09-27T02:40:33.527Z,35.90
2017-09-27T02:42:59.773Z,38.67
2017-09-27T02:45:25.987Z,33.03
2017-09-27T02:47:52.217Z,36.07
2017-09-27T02:50:18.403Z,36.40
2017-09-27T02:52:44.635Z,36.43
2017-09-27T02:55:11.671Z,33.43
2017-09-27T02:57:38.347Z,44.00
2017-09-27T03:00:04.573Z,37.40
2017-09-27T03:02:30.783Z,34.70
2017-09-27T03:04:57.699Z,36.07
2017-09-27T03:07:23.891Z,38.07
2017-09-27T03:09:50.109Z,34.20
2017-09-27T03:12:16.415Z,33.20
2017-09-27T03:14:43.407Z,35.00
2017-09-27T03:17:09.703Z,35.20
2017-09-27T03:19:35.920Z,37.30
2017-09-27T03:22:02.869Z,32.47
2017-09-27T03:24:29.068Z,33.97
2017-09-27T03:26:55.296Z,37.00
2017-09-27T03:29:21.492Z,34.87
2017-09-27T03:31:47.724Z,33.03
2017-09-27T03:34:13.954Z,32.73
2017-09-27T03:36:40.797Z,31.80
2017-09-27T03:39:06.982Z,34.30
2017-09-27T03:41:33.968Z,32.40
2017-09-27T03:44:00.205Z,35.27
2017-09-27T03:46:26.422Z,38.67
2017-09-27T03:48:52.605Z,37.80
2017-09-27T03:51:19.569Z,37.40
2017-09-27T03:53:45.834Z,33.20
2017-09-27T03:56:12.051Z,34.97
2017-09-27T03:58:38.268Z,33.50
2017-09-27T04:01:04.482Z,37.30
2017-09-27T04:03:31.520Z,35.53
2017-09-27T04:05:58.451Z,34.07
2017-09-27T04:08:25.521Z,34.40
2017-09-27T04:10:51.791Z,38.50
2017-09-27T04:13:18.030Z,37.67
2017-09-27T04:15:44.297Z,33.47
2017-09-27T04:18:11.319Z,34.40
2017-09-27T04:20:37.543Z,34.53
2017-09-27T04:23:03.821Z,37.80
2017-09-27T04:25:30.047Z,35.90
2017-09-27T04:27:56.268Z,36.83
2017-09-27T04:30:22.564Z,34.57
2017-09-27T04:32:48.779Z,36.07
2017-09-27T04:35:14.955Z,36.73
2017-09-27T04:37:41.933Z,36.70
2017-09-27T04:40:08.139Z,35.00
2017-09-27T04:42:35.300Z,36.47
2017-09-27T04:45:01.530Z,40.27
2017-09-27T04:47:27.719Z,39.70
2017-09-27T04:49:53.939Z,34.40
2017-09-27T04:52:20.261Z,33.27
2017-09-27T04:54:46.488Z,39.23
2017-09-27T04:57:12.704Z,34.70
2017-09-27T04:59:38.979Z,38.33
2017-09-27T05:02:05.993Z,29.63
2017-09-27T05:04:32.307Z,34.90
2017-09-27T05:06:58.561Z,29.87
2017-09-27T05:09:24.803Z,34.60
2017-09-27T05:11:51.109Z,30.67
2017-09-27T05:14:17.426Z,35.27
2017-09-27T05:16:43.648Z,33.30
2017-09-27T05:19:09.940Z,26.60
2017-09-27T05:21:36.996Z,30.53
2017-09-27T05:24:04.004Z,30.53
2017-09-27T05:26:30.244Z,30.77
2017-09-27T05:28:56.508Z,29.20
2017-09-27T05:31:22.919Z,28.63
2017-09-27T05:33:49.885Z,28.33
2017-09-27T05:36:16.155Z,32.73
2017-09-27T05:38:42.402Z,34.60
2017-09-27T05:41:08.613Z,31.40
2017-09-27T05:43:34.892Z,33.20
2017-09-27T05:46:01.159Z,33.80
2017-09-27T05:48:27.469Z,31.37
2017-09-27T05:50:53.677Z,28.63
2017-09-27T05:53:20.629Z,29.63
2017-09-27T05:55:47.621Z,29.40
2017-09-27T05:58:13.996Z,30.70
2017-09-27T06:00:40.912Z,30.20
2017-09-27T06:03:07.131Z,28.87
2017-09-27T06:05:33.405Z,34.87
2017-09-27T06:08:00.339Z,29.80
2017-09-27T06:10:26.560Z,27.07
2017-09-27T06:12:52.808Z,26.20
2017-09-27T06:15:19.776Z,29.60
2017-09-27T06:17:45.991Z,27.30
2017-09-27T06:20:12.200Z,34.23
2017-09-27T06:22:38.520Z,32.67
2017-09-27T06:25:04.722Z,28.57
2017-09-27T06:27:30.942Z,27.13
2017-09-27T06:29:57.156Z,28.47
2017-09-27T06:32:23.413Z,29.43
2017-09-27T06:34:49.682Z,31.10
2017-09-27T06:37:16.705Z,39.50
2017-09-27T06:39:42.969Z,28.40
2017-09-27T06:42:09.176Z,26.30
2017-09-27T06:44:35.481Z,25.63
2017-09-27T06:47:01.876Z,24.30
2017-09-27T06:49:28.266Z,26.00
2017-09-27T06:51:54.552Z,26.70
2017-09-27T06:54:20.894Z,22.57
2017-09-27T06:56:47.213Z,25.00
2017-09-27T06:59:13.606Z,24.03
2017-09-27T07:01:40.646Z,23.33
2017-09-27T07:04:06.986Z,26.20
2017-09-27T07:06:34.112Z,24.10
2017-09-27T07:09:00.447Z,24.70
2017-09-27T07:11:26.766Z,22.40
2017-09-27T07:13:53.074Z,31.27
2017-09-27T07:16:20.149Z,24.93
2017-09-27T07:18:46.463Z,23.47
2017-09-27T07:21:12.814Z,25.83
2017-09-27T07:23:39.238Z,25.17
2017-09-27T07:26:05.673Z,23.90
2017-09-27T07:28:32.057Z,21.80
2017-09-27T07:30:58.441Z,22.67
2017-09-27T07:33:24.794Z,22.50
2017-09-27T07:35:51.199Z,34.40
2017-09-27T07:38:17.651Z,23.07
2017-09-27T07:40:43.997Z,25.17
2017-09-27T07:43:11.259Z,33.30
2017-09-27T07:45:38.323Z,26.60
2017-09-27T07:48:04.668Z,24.03
2017-09-27T07:50:30.942Z,21.70
2017-09-27T07:52:57.398Z,20.53
2017-09-27T07:55:24.535Z,21.50
2017-09-27T07:57:50.856Z,22.40
2017-09-27T08:00:17.179Z,25.23
2017-09-27T08:02:43.523Z,29.37
2017-09-27T08:05:09.872Z,23.27
2017-09-27T08:07:36.898Z,22.80
2017-09-27T08:10:03.284Z,30.63
2017-09-27T08:12:29.585Z,19.47
2017-09-27T08:14:56.681Z,22.33
2017-09-27T08:17:23.029Z,23.80
2017-09-27T08:19:49.468Z,21.60
2017-09-27T08:22:15.819Z,28.00
2017-09-27T08:24:42.207Z,19.23
2017-09-27T08:27:08.552Z,19.43
2017-09-27T08:29:34.883Z,21.53
2017-09-27T08:32:01.257Z,15.83
2017-09-27T08:34:28.299Z,19.40
2017-09-27T08:36:54.604Z,16.20
2017-09-27T08:39:21.007Z,22.63
2017-09-27T08:41:47.348Z,23.37
2017-09-27T08:44:13.680Z,18.67
2017-09-27T08:46:40.024Z,19.20
2017-09-27T08:49:07.102Z,20.90
2017-09-27T08:51:33.394Z,21.07
2017-09-27T08:53:59.806Z,21.67
2017-09-27T08:56:26.230Z,16.30
2017-09-27T08:58:52.520Z,21.33
2017-09-27T09:01:18.936Z,17.47
2017-09-27T09:03:45.276Z,17.73
2017-09-27T09:06:11.562Z,17.43
2017-09-27T09:08:37.948Z,14.60
2017-09-27T09:11:04.278Z,15.50
2017-09-27T09:13:31.402Z,16.20
2017-09-27T09:15:58.540Z,13.20
2017-09-27T09:18:24.976Z,22.30
2017-09-27T09:20:51.268Z,15.57
2017-09-27T09:23:18.392Z,19.90
2017-09-27T09:25:45.537Z,16.00
2017-09-27T09:28:11.948Z,19.30
2017-09-27T09:30:38.322Z,14.70
2017-09-27T09:33:05.417Z,16.40
2017-09-27T09:35:31.821Z,19.40
2017-09-27T09:37:58.169Z,17.93
2017-09-27T09:40:24.469Z,19.73
2017-09-27T09:42:51.553Z,18.63
2017-09-27T09:45:17.970Z,17.50
2017-09-27T09:47:44.327Z,16.17
2017-09-27T09:50:10.687Z,14.20
2017-09-27T09:52:37.152Z,14.70
2017-09-27T09:55:04.250Z,15.83
2017-09-27T09:57:30.688Z,14.67
2017-09-27T09:59:57.185Z,13.00
2017-09-27T10:02:23.508Z,14.47
2017-09-27T10:04:50.543Z,16.80
2017-09-27T10:07:17.647Z,15.00
2017-09-27T10:09:43.947Z,15.80
2017-09-27T10:12:10.250Z,13.37
2017-09-27T10:14:37.354Z,15.50
2017-09-27T10:17:03.674Z,19.83
2017-09-27T10:19:30.069Z,12.83
2017-09-27T10:21:57.133Z,12.93
2017-09-27T10:24:23.468Z,12.90
2017-09-27T10:26:49.885Z,13.70
2017-09-27T10:29:17.022Z,15.33
2017-09-27T10:31:43.292Z,11.27
2017-09-27T10:34:09.778Z,13.03
2017-09-27T10:36:36.196Z,13.27
2017-09-27T10:39:03.305Z,12.73
2017-09-27T10:41:29.588Z,12.33
2017-09-27T10:43:55.822Z,12.80
2017-09-27T10:46:22.363Z,14.50
2017-09-27T10:48:49.379Z,11.63
2017-09-27T10:51:15.711Z,15.77
2017-09-27T10:53:42.132Z,15.97
2017-09-27T10:56:08.519Z,12.70
2017-09-27T10:58:35.539Z,13.17
2017-09-27T11:01:01.755Z,13.03
2017-09-27T11:03:28.013Z,14.87
2017-09-27T11:05:54.243Z,14.60
2017-09-27T11:08:20.554Z,11.90
2017-09-27T11:10:46.819Z,16.40
2017-09-27T11:13:13.856Z,12.10
2017-09-27T11:15:40.181Z,11.40
2017-09-27T11:18:06.506Z,11.70
2017-09-27T11:20:33.540Z,15.03
2017-09-27T11:22:59.767Z,10.40
2017-09-27T11:25:26.828Z,11.30
2017-09-27T11:27:53.046Z,13.63
2017-09-27T11:30:19.333Z,17.70
2017-09-27T11:32:45.550Z,11.40
2017-09-27T11:35:12.504Z,12.13
2017-09-27T11:37:38.784Z,8.13
2017-09-27T11:40:05.131Z,10.57
2017-09-27T11:42:31.374Z,8.37
2017-09-27T11:44:58.324Z,7.57
2017-09-27T11:47:25.345Z,7.70
2017-09-27T11:49:51.730Z,7.20
2017-09-27T11:52:18.103Z,6.97
2017-09-27T11:54:44.363Z,6.33
2017-09-27T11:57:11.449Z,12.10
2017-09-27T11:59:37.671Z,8.73
2017-09-27T12:02:03.907Z,6.53
2017-09-27T12:04:30.271Z,7.23
2017-09-27T12:06:56.619Z,7.17
2017-09-27T12:09:22.867Z,9.43
2017-09-27T12:11:49.846Z,7.97
2017-09-27T12:14:16.110Z,12.57
2017-09-27T12:16:42.336Z,8.77
2017-09-27T12:19:09.052Z,13.90
2017-09-27T12:21:35.656Z,8.20
2017-09-27T12:24:02.668Z,5.33
2017-09-27T12:26:28.918Z,6.57
2017-09-27T12:28:55.202Z,4.47
2017-09-27T12:31:21.464Z,8.47
2017-09-27T12:33:47.692Z,6.30
2017-09-27T12:36:13.978Z,8.13
2017-09-27T12:38:40.359Z,6.27
2017-09-27T12:41:07.411Z,6.17
2017-09-27T12:43:33.759Z,6.30
2017-09-27T12:46:00.041Z,8.47
2017-09-27T12:48:27.201Z,3.73
2017-09-27T12:50:53.473Z,6.07
2017-09-27T12:53:20.619Z,4.20
2017-09-27T12:55:47.631Z,7.97
2017-09-27T12:58:13.930Z,5.60
2017-09-27T13:00:40.197Z,6.53
2017-09-27T13:03:06.622Z,5.50
2017-09-27T13:05:32.892Z,5.93
2017-09-27T13:08:00.818Z,8.70
2017-09-27T13:10:27.052Z,7.00
2017-09-27T13:12:53.306Z,6.60
2017-09-27T13:15:19.530Z,7.00
2017-09-27T13:17:46.024Z,7.53
2017-09-27T13:20:13.006Z,8.90
2017-09-27T13:22:39.278Z,6.40
2017-09-27T13:25:05.575Z,7.73
2017-09-27T13:27:32.651Z,9.43
2017-09-27T13:29:58.895Z,7.20
2017-09-27T13:32:25.191Z,13.90
2017-09-27T13:34:52.153Z,10.60
2017-09-27T13:37:18.386Z,11.70
2017-09-27T13:39:44.592Z,13.63
2017-09-27T13:42:11.545Z,14.47
2017-09-27T13:44:38.490Z,12.40
2017-09-27T13:47:05.455Z,10.83
2017-09-27T13:49:31.759Z,10.37
2017-09-27T13:51:58.719Z,9.20
2017-09-27T13:54:25.030Z,8.80
2017-09-27T13:56:51.369Z,7.33
2017-09-27T13:59:18.357Z,8.20
2017-09-27T14:01:44.605Z,7.67
2017-09-27T14:04:10.900Z,6.53
2017-09-27T14:06:37.146Z,7.70
2017-09-27T14:09:03.516Z,10.97
2017-09-27T14:11:29.738Z,10.33
2017-09-27T14:13:56.030Z,6.80
2017-09-27T14:16:22.290Z,8.70
2017-09-27T14:18:48.580Z,9.57
2017-09-27T14:21:14.831Z,9.90
2017-09-27T14:23:41.154Z,9.17
2017-09-27T14:26:07.356Z,10.13
2017-09-27T14:28:34.301Z,10.50
2017-09-27T14:31:01.304Z,16.70
2017-09-27T14:33:27.512Z,13.90
2017-09-27T14:35:53.726Z,17.63
2017-09-27T14:38:19.943Z,10.20
2017-09-27T14:40:46.226Z,14.20
2017-09-27T14:43:12.447Z,8.73
2017-09-27T14:45:38.703Z,14.00
2017-09-27T14:48:04.945Z,9.43
2017-09-27T14:50:31.942Z,18.67
2017-09-27T14:52:58.199Z,8.33
2017-09-27T14:55:24.447Z,7.83
2017-09-27T14:57:51.392Z,8.53
2017-09-27T15:00:18.397Z,10.10
2017-09-27T15:02:44.699Z,9.40
2017-09-27T15:05:10.893Z,9.20
2017-09-27T15:07:37.909Z,9.90
2017-09-27T15:10:04.137Z,11.77
2017-09-27T15:12:30.386Z,15.07
2017-09-27T15:14:56.705Z,24.57
2017-09-27T15:17:22.937Z,13.30
2017-09-27T15:19:49.203Z,16.37
2017-09-27T15:22:16.235Z,21.60
2017-09-27T15:24:43.268Z,14.23
2017-09-27T15:27:09.605Z,14.07
2017-09-27T15:29:35.850Z,15.30
2017-09-27T15:32:02.956Z,7.80
2017-09-27T15:34:29.954Z,20.27
2017-09-27T15:36:56.226Z,18.47
2017-09-27T15:39:22.448Z,16.87
2017-09-27T15:41:48.633Z,15.93
2017-09-27T15:44:15.623Z,18.77
2017-09-27T15:46:41.874Z,12.83
2017-09-27T15:49:08.737Z,20.17
2017-09-27T15:51:35.684Z,13.23
2017-09-27T15:54:01.893Z,23.87
2017-09-27T15:56:28.160Z,17.53
2017-09-27T15:58:55.206Z,22.70
2017-09-27T16:01:22.189Z,18.93
2017-09-27T16:03:48.461Z,16.43
2017-09-27T16:06:14.712Z,18.93
2017-09-27T16:08:41.770Z,17.03
2017-09-27T16:11:08.057Z,14.50
2017-09-27T16:13:34.321Z,27.23
2017-09-27T16:16:01.295Z,21.47
2017-09-27T16:18:27.555Z,21.10
2017-09-27T16:20:53.823Z,22.83
2017-09-27T16:23:20.747Z,18.23
2017-09-27T16:25:47.096Z,20.53
2017-09-27T16:28:14.120Z,19.90
2017-09-27T16:30:40.410Z,23.30
2017-09-27T16:33:06.730Z,17.70
2017-09-27T16:35:32.984Z,16.93
2017-09-27T16:37:59.196Z,15.93
2017-09-27T16:40:25.487Z,18.13
2017-09-27T16:42:52.451Z,13.53
2017-09-27T16:45:19.458Z,26.17
2017-09-27T16:47:45.674Z,15.00
2017-09-27T16:50:11.874Z,17.53
2017-09-27T16:52:38.200Z,22.23
2017-09-27T16:55:04.480Z,25.97
2017-09-27T16:57:30.842Z,20.63
2017-09-27T16:59:57.950Z,21.20
2017-09-27T17:02:24.343Z,19.17
2017-09-27T17:04:50.567Z,23.27
2017-09-27T17:07:16.811Z,15.93
2017-09-27T17:09:43.128Z,17.40
2017-09-27T17:12:09.427Z,15.20
2017-09-27T17:14:35.705Z,27.60
2017-09-27T17:17:02.206Z,18.07
2017-09-27T17:19:28.477Z,28.60
2017-09-27T17:21:54.704Z,16.97
2017-09-27T17:24:20.932Z,17.47
2017-09-27T17:26:47.263Z,15.53
2017-09-27T17:29:14.149Z,23.00
2017-09-27T17:31:40.399Z,27.40
2017-09-27T17:34:07.465Z,30.37
2017-09-27T17:36:33.868Z,37.73
2017-09-27T17:39:00.891Z,37.13
2017-09-27T17:41:27.138Z,35.83
2017-09-27T17:43:53.455Z,37.10
2017-09-27T17:46:19.685Z,42.73
2017-09-27T17:48:45.918Z,42.27
2017-09-27T17:51:12.186Z,55.13
2017-09-27T17:53:38.436Z,52.93
2017-09-27T17:56:04.767Z,49.90
2017-09-27T17:58:31.100Z,42.90
2017-09-27T18:00:57.363Z,51.93
2017-09-27T18:03:23.600Z,64.73
2017-09-27T18:08:58.750Z,52.20
2017-09-27T18:11:31.191Z,59.03
2017-09-27T18:14:01.488Z,69.53
2017-09-27T18:16:39.770Z,58.07
2017-09-27T18:19:06.182Z,75.37
2017-09-27T18:21:32.443Z,60.73
2017-09-27T18:23:59.455Z,67.13
2017-09-27T18:26:25.844Z,56.87
2017-09-27T18:28:52.068Z,68.73
2017-09-27T18:31:19.047Z,64.50
2017-09-27T18:33:45.378Z,75.20
2017-09-27T18:36:11.656Z,61.80
2017-09-27T18:38:37.944Z,68.90
2017-09-27T18:41:04.241Z,72.93
2017-09-27T18:43:31.280Z,66.37
2017-09-27T18:45:58.279Z,65.47
2017-09-27T18:48:24.555Z,65.20
2017-09-27T18:50:51.578Z,75.90
2017-09-27T18:53:18.219Z,81.93
2017-09-27T18:55:44.548Z,69.97
2017-09-27T18:58:10.796Z,73.20
2017-09-27T19:00:37.847Z,82.10
2017-09-27T19:03:04.824Z,74.40
2017-09-27T19:05:31.125Z,66.70
2017-09-27T19:07:58.095Z,71.20
2017-09-27T19:10:24.360Z,79.80
2017-09-27T19:12:51.447Z,76.37
2017-09-27T19:15:18.408Z,79.30
2017-09-27T19:17:44.726Z,72.27
2017-09-27T19:20:11.730Z,79.83
2017-09-27T19:22:38.104Z,79.87
2017-09-27T19:25:05.146Z,81.60
2017-09-27T19:27:32.237Z,71.30
2017-09-27T19:29:58.600Z,78.33
2017-09-27T19:32:24.838Z,81.10
2017-09-27T19:34:51.126Z,91.50
2017-09-27T19:37:17.555Z,93.63
2017-09-27T19:39:43.865Z,93.13
2017-09-27T19:42:10.993Z,80.40
2017-09-27T19:44:37.283Z,84.50
2017-09-27T19:47:03.703Z,86.10
2017-09-27T19:49:30.029Z,77.80
2017-09-27T19:51:56.353Z,73.70
2017-09-27T19:54:22.740Z,78.80
2017-09-27T19:56:49.080Z,82.47
2017-09-27T19:59:15.369Z,81.80
2017-09-27T20:01:41.699Z,75.77
2017-09-27T20:04:07.999Z,71.07
2017-09-27T20:06:34.505Z,69.10
2017-09-27T20:09:00.813Z,80.87
2017-09-27T20:11:27.280Z,83.43
2017-09-27T20:13:54.409Z,80.40
2017-09-27T20:16:20.676Z,80.93
2017-09-27T20:18:46.942Z,88.03
2017-09-27T20:21:13.306Z,72.83
2017-09-27T20:23:39.842Z,72.63
2017-09-27T20:26:06.891Z,82.77
2017-09-27T20:28:33.209Z,79.50
2017-09-27T20:31:00.295Z,67.73
2017-09-27T20:33:27.280Z,73.87
2017-09-27T20:35:53.616Z,74.97
2017-09-27T20:38:20.684Z,77.47
2017-09-27T20:40:46.990Z,84.10
2017-09-27T20:43:13.257Z,75.70
2017-09-27T20:45:39.531Z,76.07
2017-09-27T20:48:05.792Z,77.80
2017-09-27T20:50:32.052Z,80.03
2017-09-27T20:52:58.279Z,77.40
2017-09-27T20:55:24.581Z,76.70
2017-09-27T20:57:50.799Z,74.80
2017-09-27T21:00:17.119Z,70.20
2017-09-27T21:02:43.398Z,68.83
2017-09-27T21:05:09.629Z,75.10
2017-09-27T21:07:36.125Z,72.73
2017-09-27T21:10:02.416Z,79.50
2017-09-27T21:12:29.433Z,78.60
2017-09-27T21:14:55.695Z,64.93
2017-09-27T21:17:22.728Z,75.20
2017-09-27T21:19:49.797Z,73.93
2017-09-27T21:22:16.774Z,84.00
2017-09-27T21:24:43.046Z,78.60
2017-09-27T21:27:09.350Z,71.70
2017-09-27T21:29:35.666Z,75.10
2017-09-27T21:32:02.146Z,69.27
2017-09-27T21:34:29.136Z,67.10
2017-09-27T21:36:55.430Z,62.53
2017-09-27T21:39:22.530Z,70.23
2017-09-27T21:41:48.797Z,66.97
2017-09-27T21:44:15.058Z,67.60
2017-09-27T21:46:41.330Z,72.17
2017-09-27T21:49:07.618Z,69.23
2017-09-27T21:51:33.915Z,66.13
2017-09-27T21:54:00.972Z,65.43
2017-09-27T21:56:27.228Z,70.53
2017-09-27T21:58:53.559Z,66.43
2017-09-27T22:01:19.900Z,66.80
2017-09-27T22:03:46.188Z,71.63
2017-09-27T22:06:12.438Z,64.53
2017-09-27T22:08:39.589Z,65.30
2017-09-27T22:11:05.830Z,71.00
2017-09-27T22:13:32.135Z,63.70
2017-09-27T22:15:58.439Z,62.60
2017-09-27T22:18:24.955Z,73.07
2017-09-27T22:20:51.204Z,73.37
2017-09-27T22:23:17.493Z,73.97
2017-09-27T22:25:43.793Z,77.23
2017-09-27T22:28:10.928Z,75.37
2017-09-27T22:30:37.197Z,71.53
2017-09-27T22:33:03.427Z,73.20
2017-09-27T22:35:29.742Z,75.17
2017-09-27T22:37:57.098Z,72.90
2017-09-27T22:40:24.063Z,68.20
2017-09-27T22:42:50.314Z,68.03
2017-09-27T22:45:16.540Z,62.53
2017-09-27T22:47:42.844Z,64.37
2017-09-27T22:50:09.261Z,67.40
2017-09-27T22:52:36.242Z,69.47
2017-09-27T22:55:02.555Z,73.50
2017-09-27T22:57:28.870Z,57.97
2017-09-27T22:59:55.126Z,62.27
2017-09-27T23:02:22.155Z,69.10
2017-09-27T23:04:48.621Z,62.30
2017-09-27T23:07:15.028Z,69.10
2017-09-27T23:09:42.050Z,62.83
2017-09-27T23:12:08.289Z,62.40
2017-09-27T23:14:35.301Z,61.93
2017-09-27T23:17:01.553Z,64.37
2017-09-27T23:19:27.833Z,63.97
2017-09-27T23:21:54.059Z,55.07
2017-09-27T23:24:20.341Z,60.13
2017-09-27T23:26:46.643Z,53.50
2017-09-27T23:29:13.621Z,56.27
2017-09-27T23:31:39.875Z,57.30
2017-09-27T23:34:06.578Z,57.13
2017-09-27T23:36:32.873Z,50.57
2017-09-27T23:38:59.124Z,62.53
2017-09-27T23:41:25.375Z,66.93
2017-09-27T23:43:51.641Z,51.00
2017-09-27T23:46:18.034Z,51.97
2017-09-27T23:48:44.267Z,55.47
2017-09-27T23:51:10.515Z,50.50
2017-09-27T23:53:37.578Z,64.87
2017-09-27T23:56:03.840Z,54.80
2017-09-27T23:58:30.198Z,54.13
